Time;durP1;ratioP1;P1;durP2;ratioP2;P2;SDS_P1;SDS_P2;PMS_P1;PMS_P2;Temp;Humidity;BMP_temperature;BMP_pressure;BME280_temperature;BME280_humidity;BME280_pressure;Samples;Min_cycle;Max_cycle;Signal;HPM_P1;HPM_P2
2021/12/11 00:04:13;;;;;;;20.67;16.65;;;;;;;4.85;76.90;98840.25;10286992;28;20126;-65
2021/12/11 00:09:27;;;;;;;20.65;17.30;;;;;;;4.82;76.47;98851.06;10285128;28;20081;-66
2021/12/11 00:14:31;;;;;;;19.07;16.80;;;;;;;4.80;77.32;98860.88;10288992;28;20165;-65
2021/12/11 00:19:35;;;;;;;19.23;16.35;;;;;;;4.68;76.74;98860.03;10304466;28;20058;-65
2021/12/11 00:24:37;;;;;;;20.33;17.00;;;;;;;4.78;76.88;98886.53;10303575;28;20054;-64
2021/12/11 00:29:40;;;;;;;18.20;15.18;;;;;;;4.80;77.01;98895.13;10288865;28;20118;-65
2021/12/11 00:34:46;;;;;;;18.38;15.73;;;;;;;4.77;76.77;98905.94;10295572;28;20129;-66
2021/12/11 00:40:06;;;;;;;17.52;15.40;;;;;;;4.83;76.57;98912.53;10318648;28;20053;-65
2021/12/11 00:45:18;;;;;;;19.88;16.27;;;;;;;4.78;77.26;98936.63;10282803;28;20130;-65
2021/12/11 00:50:25;;;;;;;18.27;15.02;;;;;;;4.79;76.81;98935.66;10293920;28;20062;-67
2021/12/11 00:55:30;;;;;;;16.50;14.38;;;;;;;4.87;76.82;98949.06;10293944;28;20125;-66
2021/12/11 01:01:02;;;;;;;17.95;14.85;;;;;;;4.99;76.63;98951.72;10293535;28;20361;-65
2021/12/11 01:06:16;;;;;;;19.02;15.15;;;;;;;4.96;76.38;98969.47;10279974;28;20038;-66
2021/12/11 01:11:35;;;;;;;16.42;14.35;;;;;;;4.95;76.23;98983.63;10301088;28;20037;-66
2021/12/11 01:16:38;;;;;;;16.08;14.25;;;;;;;4.94;76.53;98994.28;10293282;28;20042;-66
2021/12/11 01:26:45;;;;;;;18.80;15.73;;;;;;;4.81;76.85;99027.81;10310158;28;20291;-65
2021/12/11 01:31:49;;;;;;;19.83;15.02;;;;;;;4.87;77.29;99040.53;10291682;28;20076;-65
2021/12/11 01:36:52;;;;;;;18.17;15.23;;;;;;;4.93;76.98;99043.53;10289818;28;20050;-65
2021/12/11 01:41:56;;;;;;;20.08;16.40;;;;;;;5.01;76.66;99063.22;10306412;28;20042;-66
2021/12/11 01:47:06;;;;;;;14.82;13.07;;;;;;;4.86;76.57;99073.97;10290680;28;20088;-65
2021/12/11 01:52:19;;;;;;;20.67;16.55;;;;;;;4.80;76.73;99084.97;10291200;28;20058;-65
2021/12/11 01:57:24;;;;;;;16.30;13.73;;;;;;;4.84;77.10;99091.69;10291407;28;20129;-66
2021/12/11 02:02:34;;;;;;;16.80;13.07;;;;;;;4.62;76.73;99102.16;10309084;28;20043;-66
2021/12/11 02:07:40;;;;;;;16.65;14.23;;;;;;;4.81;76.73;99115.66;10289167;28;20042;-66
2021/12/11 02:12:44;;;;;;;16.30;14.32;;;;;;;4.92;76.31;99125.41;10302453;28;20429;-66
2021/12/11 02:17:52;;;;;;;15.00;13.40;;;;;;;4.93;76.24;99132.38;10289893;28;20082;-66
2021/12/11 02:22:56;;;;;;;12.18;10.88;;;;;;;4.96;75.65;99142.69;10304964;28;20417;-66
2021/12/11 02:28:06;;;;;;;14.18;11.68;;;;;;;4.98;75.15;99153.94;10307479;28;20461;-66
2021/12/11 02:33:14;;;;;;;14.95;12.35;;;;;;;5.04;75.48;99163.22;10289658;28;20085;-66
2021/12/11 02:38:27;;;;;;;13.80;12.30;;;;;;;5.04;75.72;99168.47;10290570;28;20066;-66
2021/12/11 02:43:38;;;;;;;13.27;11.88;;;;;;;4.88;75.98;99172.28;10289195;28;20136;-65
2021/12/11 02:48:45;;;;;;;13.35;11.63;;;;;;;4.92;76.18;99183.41;10295718;28;20070;-65
2021/12/11 02:53:52;;;;;;;12.60;11.30;;;;;;;4.98;75.71;99197.97;10305926;28;20501;-66
2021/12/11 02:58:58;;;;;;;12.02;10.73;;;;;;;5.07;75.26;99203.38;10287751;28;20100;-65
2021/12/11 03:04:15;;;;;;;14.10;12.60;;;;;;;5.10;74.65;99212.88;10304709;28;20058;-66
2021/12/11 03:09:21;;;;;;;14.05;12.63;;;;;;;5.09;75.17;99227.88;10288810;28;20082;-66
2021/12/11 03:14:24;;;;;;;13.13;11.63;;;;;;;4.82;74.90;99238.66;10304905;28;20074;-66
2021/12/11 03:19:29;;;;;;;12.90;11.60;;;;;;;4.98;75.20;99250.72;10328903;23;20128;-61
2021/12/11 03:24:33;;;;;;;13.40;12.02;;;;;;;5.05;75.09;99259.84;10289611;28;20123;-61
2021/12/11 03:29:35;;;;;;;13.18;11.57;;;;;;;5.03;74.64;99259.97;10290792;28;20133;-61
2021/12/11 03:34:42;;;;;;;13.07;11.63;;;;;;;5.10;74.28;99277.03;10308801;28;25568;-61
2021/12/11 03:39:47;;;;;;;13.95;12.20;;;;;;;5.13;74.72;99284.72;10308316;28;20209;-62
2021/12/11 03:44:50;;;;;;;12.75;11.27;;;;;;;5.06;75.01;99279.97;10308951;28;20134;-61
2021/12/11 03:49:52;;;;;;;13.38;12.00;;;;;;;5.17;74.38;99298.53;10307787;28;20412;-61
2021/12/11 03:54:54;;;;;;;15.55;13.80;;;;;;;5.18;74.17;99316.03;10308137;28;20125;-61
2021/12/11 03:59:56;;;;;;;14.23;12.73;;;;;;;5.22;74.32;99328.03;10309273;28;20050;-61
2021/12/11 04:05:01;;;;;;;13.85;12.40;;;;;;;5.26;74.06;99334.78;10316601;28;20138;-61
2021/12/11 04:10:05;;;;;;;15.23;13.13;;;;;;;5.31;73.42;99332.66;10307247;28;20133;-61
2021/12/11 04:15:08;;;;;;;14.10;11.70;;;;;;;5.29;74.04;99350.41;10310179;28;20116;-61
2021/12/11 04:20:14;;;;;;;14.13;11.85;;;;;;;5.39;73.95;99349.72;10306994;28;20064;-62
2021/12/11 04:25:17;;;;;;;13.32;11.77;;;;;;;5.26;73.96;99345.34;10307231;28;20133;-62
2021/12/11 04:30:21;;;;;;;11.82;10.45;;;;;;;5.37;73.23;99370.94;10306891;28;20137;-60
2021/12/11 04:35:27;;;;;;;13.25;10.63;;;;;;;5.38;73.47;99383.19;10307131;28;20197;-62
2021/12/11 04:40:35;;;;;;;11.13;10.00;;;;;;;5.26;73.51;99392.00;10307262;28;20109;-63
2021/12/11 04:45:42;;;;;;;13.35;11.18;;;;;;;5.40;73.53;99396.28;10306437;28;20053;-61
2021/12/11 04:50:57;;;;;;;13.95;10.40;;;;;;;5.35;72.41;99403.69;10304136;28;20042;-60
2021/12/11 05:11:39;;;;;;;12.02;10.75;;;;;;;5.39;71.89;99440.31;10312418;28;20048;-61
2021/12/11 05:16:41;;;;;;;14.02;11.43;;;;;;;5.36;72.23;99455.50;10308736;28;20050;-60
2021/12/11 05:21:43;;;;;;;10.48;9.38;;;;;;;5.45;71.63;99470.69;10311280;28;20089;-64
2021/12/11 05:26:45;;;;;;;12.32;11.00;;;;;;;5.36;71.37;99476.63;10313066;28;20056;-61
2021/12/11 05:31:46;;;;;;;13.25;10.57;;;;;;;5.35;71.62;99490.78;10312086;28;20062;-61
2021/12/11 05:36:48;;;;;;;11.27;10.07;;;;;;;5.40;71.88;99493.94;10313330;28;20052;-61
2021/12/11 05:41:51;;;;;;;16.95;11.32;;;;;;;5.38;71.31;99495.84;10312326;28;20133;-62
2021/12/11 05:46:54;;;;;;;12.48;10.60;;;;;;;5.47;71.32;99521.59;10312673;28;20456;-61
2021/12/11 05:51:56;;;;;;;12.43;10.88;;;;;;;5.40;70.77;99525.59;10312358;28;20065;-62
2021/12/11 05:57:03;;;;;;;13.15;10.20;;;;;;;5.47;71.33;99532.16;10312458;28;20053;-61
2021/12/11 06:02:09;;;;;;;13.02;11.63;;;;;;;5.43;72.20;99552.63;10312461;28;20121;-61
2021/12/11 06:07:13;;;;;;;14.85;12.43;;;;;;;5.29;73.38;99548.31;10323408;28;20058;-61
2021/12/11 06:12:17;;;;;;;14.40;12.90;;;;;;;5.41;73.88;99569.53;10318911;28;20137;-61
2021/12/11 06:17:25;;;;;;;14.68;13.23;;;;;;;5.40;73.71;99588.94;10311987;28;20194;-61
2021/12/11 06:22:30;;;;;;;13.45;12.10;;;;;;;5.37;74.14;99595.28;10309898;28;20053;-61
2021/12/11 06:27:32;;;;;;;14.40;12.90;;;;;;;5.32;74.69;99602.69;10310555;28;20165;-60
2021/12/11 06:32:34;;;;;;;14.20;12.70;;;;;;;5.25;75.15;99622.53;10310873;28;20149;-61
2021/12/11 06:37:35;;;;;;;14.43;13.00;;;;;;;5.19;75.21;99636.97;10310377;28;20444;-60
2021/12/11 06:42:37;;;;;;;17.38;14.90;;;;;;;5.07;75.10;99636.00;10309728;28;20529;-60
2021/12/11 06:47:38;;;;;;;18.20;14.10;;;;;;;4.91;75.95;99636.22;10310153;28;20065;-60
2021/12/11 06:52:40;;;;;;;15.07;13.45;;;;;;;4.91;75.76;99659.94;10311212;28;20101;-61
2021/12/11 06:57:48;;;;;;;15.77;13.05;;;;;;;4.88;76.27;99678.63;10309816;28;20097;-61
2021/12/11 07:02:49;;;;;;;17.70;13.95;;;;;;;4.75;76.22;99673.28;10309406;28;20050;-61
2021/12/11 07:07:51;;;;;;;14.10;12.65;;;;;;;4.80;76.17;99696.72;10309487;28;20058;-61
2021/12/11 07:12:52;;;;;;;15.38;13.55;;;;;;;4.83;76.01;99714.97;10286442;28;20390;-61
2021/12/11 07:17:54;;;;;;;16.42;14.60;;;;;;;4.69;76.24;99713.25;10280495;28;20060;-60
2021/12/11 07:22:56;;;;;;;18.85;16.08;;;;;;;4.60;76.74;99722.59;10289698;28;20572;-60
2021/12/11 07:28:03;;;;;;;16.83;14.70;;;;;;;4.68;76.39;99753.72;10292231;28;20066;-60
2021/12/11 07:33:07;;;;;;;16.75;14.98;;;;;;;4.60;76.72;99767.41;10291245;28;20057;-61
2021/12/11 07:38:09;;;;;;;16.20;14.60;;;;;;;4.52;77.14;99779.38;10291267;28;20158;-62
2021/12/11 07:43:12;;;;;;;18.15;15.85;;;;;;;4.55;77.18;99795.84;10291123;28;20054;-61
2021/12/11 07:48:14;;;;;;;16.23;13.85;;;;;;;4.57;76.70;99812.41;10289017;28;20050;-61
2021/12/11 07:53:17;;;;;;;21.65;18.58;;;;;;;4.49;77.18;99825.22;10291388;28;20150;-60
2021/12/11 07:58:20;;;;;;;21.27;18.98;;;;;;;4.34;76.82;99820.88;10290391;28;20540;-60
2021/12/11 08:03:21;;;;;;;21.38;18.27;;;;;;;4.44;76.62;99827.28;10290134;28;20140;-60
2021/12/11 08:08:28;;;;;;;25.90;20.30;;;;;;;4.49;76.11;99859.50;10289855;28;20054;-61
2021/12/11 08:13:31;;;;;;;25.30;21.27;;;;;;;4.40;75.99;99865.34;10288733;28;20116;-60
2021/12/11 08:18:33;;;;;;;32.80;24.20;;;;;;;4.41;76.11;99886.34;10290486;28;20492;-63
2021/12/11 08:23:42;;;;;;;19.50;16.63;;;;;;;4.45;76.56;99892.25;10291039;28;20543;-60
2021/12/11 08:28:45;;;;;;;19.48;16.90;;;;;;;4.42;77.16;99902.97;10291728;28;20042;-61
2021/12/11 08:33:47;;;;;;;22.38;17.88;;;;;;;4.50;77.11;99911.25;10291524;28;20046;-61
2021/12/11 08:38:49;;;;;;;22.50;18.25;;;;;;;4.54;76.54;99911.94;10290359;28;20049;-60
2021/12/11 08:43:58;;;;;;;24.00;19.10;;;;;;;4.67;76.42;99931.34;10290772;28;20149;-60
2021/12/11 08:49:07;;;;;;;22.02;18.15;;;;;;;4.76;76.21;99943.13;10293147;28;20058;-62
2021/12/11 08:54:09;;;;;;;23.33;19.33;;;;;;;4.89;75.84;99959.84;10299928;28;20060;-62
2021/12/11 08:59:14;;;;;;;24.73;19.15;;;;;;;5.00;75.52;99963.63;10297164;28;20069;-61
2021/12/11 09:04:21;;;;;;;26.08;21.38;;;;;;;5.05;75.41;99974.75;10295736;28;20140;-61
2021/12/11 09:09:38;;;;;;;28.42;22.85;;;;;;;5.04;74.87;99975.69;10298444;28;20059;-60
2021/12/11 09:14:48;;;;;;;26.10;21.00;;;;;;;4.96;74.95;99978.81;10291553;28;20061;-60
2021/12/11 09:19:52;;;;;;;25.30;21.75;;;;;;;5.14;74.13;99990.84;10294745;28;20077;-60
2021/12/11 09:25:20;;;;;;;26.13;21.70;;;;;;;5.15;73.14;100007.56;10292971;28;20770;-62
2021/12/11 09:30:37;;;;;;;26.50;21.45;;;;;;;5.30;72.99;100018.94;10253188;28;20074;-61
2021/12/11 09:36:04;;;;;;;29.42;22.10;;;;;;;5.47;72.71;100024.00;10170944;28;20056;-62
2021/12/11 09:41:21;;;;;;;29.35;21.92;;;;;;;5.74;71.83;100030.28;10170330;28;20616;-62
2021/12/11 09:46:28;;;;;;;27.27;21.75;;;;;;;5.78;70.65;100021.19;10176919;28;20048;-62
2021/12/11 09:51:36;;;;;;;28.05;22.73;;;;;;;6.09;69.04;100038.59;10168771;28;20482;-59
2021/12/11 09:56:43;;;;;;;32.38;22.77;;;;;;;6.50;68.15;100045.59;10172153;28;20933;-58
2021/12/11 10:01:48;;;;;;;26.23;21.63;;;;;;;7.06;66.58;100052.44;10171278;28;20068;-60
2021/12/11 10:12:13;;;;;;;30.60;23.25;;;;;;;7.35;63.22;100015.13;10176867;28;20191;-60
2021/12/11 10:17:22;;;;;;;25.58;20.55;;;;;;;7.70;62.97;100067.38;10176286;28;20051;-60
2021/12/11 10:22:37;;;;;;;28.52;23.02;;;;;;;7.76;62.94;100067.81;10171193;28;20071;-62
2021/12/11 10:27:39;;;;;;;26.13;21.60;;;;;;;7.99;62.56;100075.03;10173373;28;20052;-60
2021/12/11 10:32:40;;;;;;;27.15;22.48;;;;;;;8.09;62.54;100084.03;10170245;28;20400;-61
2021/12/11 10:37:42;;;;;;;27.60;23.05;;;;;;;8.34;60.70;100092.84;10172291;28;20056;-62
2021/12/11 10:42:49;;;;;;;26.63;21.90;;;;;;;8.92;59.35;100098.28;10171150;28;20043;-61
2021/12/11 10:47:55;;;;;;;27.63;21.10;;;;;;;10.00;56.37;100076.59;10169560;28;20056;-61
2021/12/11 10:52:58;;;;;;;24.52;21.00;;;;;;;12.77;48.85;100091.00;10169147;28;20047;-62
2021/12/11 10:58:05;;;;;;;23.75;20.00;;;;;;;14.60;43.11;100099.41;10170075;28;20131;-62
2021/12/11 11:03:07;;;;;;;22.33;18.92;;;;;;;16.24;40.29;100099.56;10170406;28;20067;-61
2021/12/11 11:08:10;;;;;;;19.35;17.35;;;;;;;18.20;35.31;100107.56;10167300;28;20178;-62
2021/12/11 11:13:14;;;;;;;17.35;14.98;;;;;;;16.08;37.73;100113.78;10170277;28;20069;-62
2021/12/11 11:18:18;;;;;;;17.70;14.70;;;;;;;16.43;37.23;100119.91;10169023;28;20446;-62
2021/12/11 11:23:20;;;;;;;;;;;;;;;15.71;37.83;100133.72;10166816;28;20044;-61
2021/12/11 11:28:26;;;;;;;20.05;15.50;;;;;;;18.21;33.29;100122.72;10166926;28;19923;-60
2021/12/11 11:33:29;;;;;;;15.85;12.98;;;;;;;19.94;28.43;100132.88;10167806;28;20087;-61
2021/12/11 11:38:36;;;;;;;17.60;13.18;;;;;;;21.36;28.06;100146.84;10168457;28;20049;-60
2021/12/11 11:43:38;;;;;;;17.90;14.85;;;;;;;21.72;27.00;100164.81;10169693;28;20063;-60
2021/12/11 11:48:44;;;;;;;16.58;14.88;;;;;;;19.16;29.28;100158.50;10168373;28;20062;-60
2021/12/11 11:53:50;;;;;;;17.33;15.25;;;;;;;19.04;30.45;100147.28;10167907;28;20199;-60
2021/12/11 11:58:53;;;;;;;17.52;15.70;;;;;;;20.71;28.51;100157.72;10169206;28;20146;-61
2021/12/11 12:03:55;;;;;;;;;;;;;;;21.85;26.30;100158.66;10169543;28;20070;-60
2021/12/11 12:08:57;;;;;;;16.85;14.18;;;;;;;21.23;27.20;100144.03;10166432;28;19931;-60
2021/12/11 12:14:00;;;;;;;16.70;15.02;;;;;;;23.26;24.84;100155.31;10183313;28;20063;-61
2021/12/11 12:19:03;;;;;;;15.15;12.75;;;;;;;23.37;22.99;100155.75;10171775;28;20497;-60
2021/12/11 12:24:06;;;;;;;15.93;13.33;;;;;;;20.42;27.88;100181.09;10168406;28;20061;-61
2021/12/11 12:29:11;;;;;;;18.35;16.50;;;;;;;20.94;28.09;100170.22;10176676;28;20134;-61
2021/12/11 12:34:14;;;;;;;35.80;32.67;;;;;;;22.58;24.91;100175.25;10173669;28;20043;-61
2021/12/11 12:39:18;;;;;;;13.40;12.15;;;;;;;20.81;25.79;100169.06;10175992;28;20070;-61
2021/12/11 12:44:21;;;;;;;13.13;11.73;;;;;;;15.79;33.33;100200.88;10177748;28;20066;-60
2021/12/11 12:49:35;;;;;;;14.23;11.77;;;;;;;12.90;39.74;100196.59;10176973;28;20241;-61
2021/12/11 12:54:37;;;;;;;15.95;11.80;;;;;;;11.27;43.19;100209.00;10176021;28;20490;-60
2021/12/11 12:59:43;;;;;;;18.58;16.88;;;;;;;10.31;45.90;100221.22;10176567;28;20062;-60
2021/12/11 13:04:53;;;;;;;15.00;12.88;;;;;;;10.01;47.65;100232.50;10173857;28;20043;-59
2021/12/11 13:10:23;;;;;;;32.78;22.15;;;;;;;9.56;48.85;100238.59;10174910;28;20055;-61
2021/12/11 13:15:36;;;;;;;23.55;17.20;;;;;;;9.24;50.72;100236.56;10173943;28;20482;-61
2021/12/11 13:20:44;;;;;;;21.20;15.25;;;;;;;9.39;51.01;100245.19;10172966;28;20044;-61
2021/12/11 13:25:53;;;;;;;21.30;15.48;;;;;;;9.37;51.01;100257.75;10175268;28;20146;-61
2021/12/11 13:31:00;;;;;;;19.77;15.05;;;;;;;9.05;52.34;100250.38;10187716;28;20713;-62
2021/12/11 13:36:02;;;;;;;19.63;14.95;;;;;;;8.80;53.87;100248.69;10176109;28;20055;-60
2021/12/11 13:41:13;;;;;;;17.15;14.15;;;;;;;8.59;56.31;100270.53;10175679;28;20081;-61
2021/12/11 13:46:15;;;;;;;17.38;13.95;;;;;;;7.99;59.69;100279.16;10173090;28;20158;-59
2021/12/11 13:51:23;;;;;;;16.63;13.70;;;;;;;7.81;61.03;100287.44;10174042;28;20044;-59
2021/12/11 13:56:34;;;;;;;14.50;12.48;;;;;;;7.66;62.10;100307.03;10174890;28;20056;-60
2021/12/11 14:01:39;;;;;;;15.68;13.43;;;;;;;7.54;63.34;100319.28;10172612;28;20556;-60
2021/12/11 14:06:48;;;;;;;15.85;13.80;;;;;;;7.50;64.36;100309.84;10171839;28;20480;-61
2021/12/11 14:11:50;;;;;;;18.13;13.80;;;;;;;7.24;64.98;100323.00;10174665;28;20052;-60
2021/12/11 14:16:52;;;;;;;20.30;18.00;;;;;;;7.00;66.75;100333.41;10175197;28;20044;-59
2021/12/11 14:22:00;;;;;;;18.15;14.95;;;;;;;6.85;67.96;100345.81;10176610;28;23583;-60
2021/12/11 14:27:06;;;;;;;16.35;13.93;;;;;;;6.76;66.80;100341.09;10173322;28;20057;-60
2021/12/11 14:32:07;;;;;;;16.38;14.65;;;;;;;6.53;69.23;100346.00;10171290;28;20566;-60
2021/12/11 14:37:10;;;;;;;17.90;14.48;;;;;;;6.77;68.10;100369.25;10172458;28;20074;-61
2021/12/11 14:42:13;;;;;;;16.88;14.73;;;;;;;6.77;68.96;100391.28;10172686;28;20186;-60
2021/12/11 14:47:14;;;;;;;17.48;13.73;;;;;;;6.55;69.21;100397.03;10186411;28;20510;-60
2021/12/11 14:52:20;;;;;;;14.50;12.02;;;;;;;6.36;69.21;100408.75;10170175;28;20055;-61
2021/12/11 14:57:22;;;;;;;16.30;12.82;;;;;;;6.33;69.90;100430.06;10199157;28;20043;-62
2021/12/11 15:02:29;;;;;;;17.50;12.32;;;;;;;6.19;70.44;100437.97;10171745;28;20086;-61
2021/12/11 15:07:31;;;;;;;15.68;13.00;;;;;;;6.24;71.16;100433.25;10169583;28;20066;-61
2021/12/11 15:12:34;;;;;;;14.63;11.77;;;;;;;5.95;70.97;100421.75;10172484;28;20049;-61
2021/12/11 15:17:36;;;;;;;13.55;11.60;;;;;;;6.05;70.33;100430.00;10171388;28;20437;-61
2021/12/11 15:22:38;;;;;;;16.38;12.38;;;;;;;6.12;71.08;100434.00;10169932;28;20056;-61
2021/12/11 15:27:40;;;;;;;13.77;11.20;;;;;;;6.17;70.54;100450.41;10169947;28;20056;-63
2021/12/11 15:32:41;;;;;;;13.00;10.95;;;;;;;6.05;70.48;100446.72;10169425;28;20290;-61
2021/12/11 15:37:43;;;;;;;14.88;12.35;;;;;;;6.14;71.17;100469.09;10184506;28;20052;-61
2021/12/11 15:42:47;;;;;;;15.20;11.07;;;;;;;5.91;71.51;100468.63;10170253;28;20070;-61
2021/12/11 15:47:53;;;;;;;13.68;10.18;;;;;;;5.87;71.71;100458.31;10171272;28;20043;-60
2021/12/11 15:52:55;;;;;;;13.48;10.85;;;;;;;5.76;72.61;100467.69;10169785;28;20051;-60
2021/12/11 15:57:57;;;;;;;16.20;11.80;;;;;;;5.82;73.26;100487.66;10168906;28;20124;-60
2021/12/11 16:02:59;;;;;;;14.95;11.52;;;;;;;5.74;73.97;100495.16;10171585;28;20555;-60
2021/12/11 16:08:03;;;;;;;15.88;12.32;;;;;;;5.71;73.73;100490.91;10173566;28;20050;-61
2021/12/11 16:13:06;;;;;;;14.80;11.32;;;;;;;5.61;74.42;100485.25;10203599;28;20051;-62
2021/12/11 16:18:08;;;;;;;16.05;12.30;;;;;;;5.77;74.89;100505.56;10178751;28;20135;-60
2021/12/11 16:23:15;;;;;;;13.95;10.95;;;;;;;5.71;74.48;100508.53;10170588;28;20055;-60
2021/12/11 16:28:18;;;;;;;13.35;11.70;;;;;;;5.75;75.23;100524.13;10174773;28;20745;-63
2021/12/11 16:33:20;;;;;;;15.70;11.65;;;;;;;5.72;75.84;100510.22;10168343;28;20591;-60
2021/12/11 16:38:29;;;;;;;14.90;12.45;;;;;;;5.67;75.28;100521.06;10170901;28;20058;-60
2021/12/11 16:43:31;;;;;;;15.13;12.75;;;;;;;5.64;75.46;100527.38;10170153;28;20051;-60
2021/12/11 16:48:35;;;;;;;15.88;12.82;;;;;;;5.75;75.37;100539.09;10169915;28;20047;-60
2021/12/11 16:53:40;;;;;;;16.23;13.02;;;;;;;5.73;75.61;100547.13;10168640;28;20043;-60
2021/12/11 16:58:43;;;;;;;17.00;13.65;;;;;;;5.51;75.86;100534.28;10168825;28;20063;-60
2021/12/11 17:03:46;;;;;;;17.88;15.98;;;;;;;5.79;75.86;100553.84;10164291;28;20129;-61
2021/12/11 17:08:49;;;;;;;16.30;13.32;;;;;;;5.72;75.81;100556.00;10166324;28;20502;-62
2021/12/11 17:13:52;;;;;;;17.70;13.85;;;;;;;5.70;75.98;100547.28;10172953;28;20437;-59
2021/12/11 17:19:00;;;;;;;18.20;12.95;;;;;;;5.65;76.46;100557.28;10215102;28;20544;-62
2021/12/11 17:24:02;;;;;;;32.22;28.50;;;;;;;5.76;76.14;100565.44;10214321;28;20429;-64
2021/12/11 17:29:08;;;;;;;18.33;12.95;;;;;;;5.42;76.70;100532.09;10213707;28;20055;-61
2021/12/11 17:34:15;;;;;;;17.33;11.85;;;;;;;5.55;76.79;100578.03;10215739;28;20090;-62
2021/12/11 17:39:20;;;;;;;19.67;13.45;;;;;;;5.33;77.70;100583.66;10219893;28;20054;-61
2021/12/11 17:44:23;;;;;;;15.65;12.07;;;;;;;5.43;77.84;100582.19;10217058;28;20053;-62
2021/12/11 17:49:24;;;;;;;16.83;13.07;;;;;;;5.46;77.73;100587.34;10212898;28;20054;-61
2021/12/11 17:54:27;;;;;;;16.67;13.23;;;;;;;5.52;78.19;100604.63;10213400;28;20061;-59
2021/12/11 17:59:30;;;;;;;17.52;12.65;;;;;;;5.45;77.69;100605.88;10211028;28;20055;-60
2021/12/11 18:04:36;;;;;;;15.68;12.25;;;;;;;5.66;77.45;100619.75;10242886;28;20123;-61
2021/12/11 18:09:44;;;;;;;15.70;11.82;;;;;;;5.66;77.82;100628.50;10212629;28;20059;-62
2021/12/11 18:14:56;;;;;;;14.25;10.52;;;;;;;5.80;77.29;100630.38;10215571;28;20188;-61
2021/12/11 18:20:11;;;;;;;13.43;10.90;;;;;;;5.80;76.87;100632.19;10213518;28;20119;-62
2021/12/11 18:25:24;;;;;;;20.95;13.40;;;;;;;5.49;76.94;100612.69;10225972;28;20058;-64
2021/12/11 18:30:29;;;;;;;15.55;12.88;;;;;;;5.65;78.20;100640.00;10209222;28;20047;-60
2021/12/11 18:35:37;;;;;;;16.80;12.25;;;;;;;5.66;77.88;100657.56;10226770;28;20486;-62
2021/12/11 18:40:44;;;;;;;14.73;12.48;;;;;;;5.52;78.23;100649.50;10214939;28;20053;-60
2021/12/11 18:45:53;;;;;;;18.60;15.15;;;;;;;5.77;77.82;100674.63;10213048;28;20577;-60
2021/12/11 18:51:25;;;;;;;18.77;14.55;;;;;;;5.73;77.85;100662.50;10213269;28;20183;-60
2021/12/11 18:56:28;;;;;;;16.63;13.20;;;;;;;5.84;77.90;100684.78;10206373;28;20106;-60
2021/12/11 19:01:38;;;;;;;16.38;12.98;;;;;;;5.76;77.20;100676.38;10212947;28;20605;-61
2021/12/11 19:06:40;;;;;;;20.08;13.75;;;;;;;5.73;77.55;100671.28;10214086;28;20558;-60
2021/12/11 19:11:46;;;;;;;15.30;11.68;;;;;;;5.83;77.46;100684.84;10215427;28;20063;-61
2021/12/11 19:16:48;;;;;;;15.85;11.80;;;;;;;5.80;77.35;100683.22;10214815;28;20058;-61
2021/12/11 19:21:54;;;;;;;16.33;11.68;;;;;;;5.77;78.10;100695.75;10212552;28;20061;-61
2021/12/11 19:27:01;;;;;;;11.75;9.65;;;;;;;5.71;77.98;100696.09;10208403;28;20549;-59
2021/12/11 19:32:07;;;;;;;13.88;9.80;;;;;;;5.61;78.49;100709.75;10209613;28;20058;-60
2021/12/11 19:37:10;;;;;;;13.25;10.00;;;;;;;5.64;79.13;100725.47;10212809;28;20134;-59
2021/12/11 19:42:12;;;;;;;12.68;10.20;;;;;;;5.75;78.22;100732.81;10209017;28;20159;-60
2021/12/11 19:47:16;;;;;;;17.20;12.68;;;;;;;5.92;77.71;100737.19;10209224;28;20633;-60
2021/12/11 19:52:24;;;;;;;12.77;9.18;;;;;;;5.92;77.00;100745.13;10210929;28;20426;-61
2021/12/11 19:57:29;;;;;;;14.52;10.18;;;;;;;5.78;77.95;100752.91;10209171;28;20047;-60
2021/12/11 20:02:34;;;;;;;13.75;9.98;;;;;;;5.81;77.88;100752.75;10207214;28;20131;-60
2021/12/11 20:07:36;;;;;;;17.13;10.80;;;;;;;5.66;78.13;100746.53;10207841;28;20054;-60
2021/12/11 20:12:43;;;;;;;12.63;9.73;;;;;;;5.70;78.39;100760.41;10206758;28;20094;-60
2021/12/11 20:17:47;;;;;;;14.00;10.70;;;;;;;5.63;78.08;100778.34;10204520;28;20159;-59
2021/12/11 20:22:51;;;;;;;15.73;10.55;;;;;;;5.45;78.64;100781.00;10203053;28;20074;-60
2021/12/11 20:27:54;;;;;;;9.55;8.45;;;;;;;5.40;78.41;100785.66;10209678;28;20430;-60
2021/12/11 20:32:57;;;;;;;11.90;9.25;;;;;;;5.16;79.19;100773.69;10200343;28;20394;-59
2021/12/11 20:37:58;;;;;;;11.40;8.73;;;;;;;5.40;78.59;100803.28;10211496;28;20542;-60
2021/12/11 20:43:03;;;;;;;14.57;9.30;;;;;;;5.40;78.28;100798.00;10204687;28;20051;-60
2021/12/11 20:48:05;;;;;;;11.98;8.32;;;;;;;5.43;78.74;100808.41;10224373;28;20158;-60
2021/12/11 20:53:08;;;;;;;9.82;7.50;;;;;;;5.33;78.97;100808.03;10205810;28;20063;-60
2021/12/11 20:58:11;;;;;;;15.38;8.45;;;;;;;5.29;78.51;100823.16;10213215;28;20065;-61
2021/12/11 21:03:15;;;;;;;12.75;9.85;;;;;;;5.18;78.89;100820.22;10218001;28;20627;-61
2021/12/11 21:08:17;;;;;;;15.70;8.57;;;;;;;5.14;78.97;100831.84;10211158;28;20138;-58
2021/12/11 21:13:27;;;;;;;11.75;7.47;;;;;;;5.09;79.02;100825.94;10214068;28;20054;-60
2021/12/11 21:18:33;;;;;;;13.93;8.40;;;;;;;5.15;78.95;100830.91;10215791;28;20142;-61
2021/12/11 21:23:43;;;;;;;13.43;8.35;;;;;;;5.24;78.33;100837.50;10215782;28;20047;-62
2021/12/11 21:28:59;;;;;;;10.43;7.68;;;;;;;5.15;78.58;100836.19;10213284;28;20332;-60
2021/12/11 21:34:02;;;;;;;12.93;8.63;;;;;;;5.41;77.51;100855.19;10217907;28;20051;-62
2021/12/11 21:39:42;;;;;;;10.82;8.73;;;;;;;5.43;77.64;100861.22;10212624;28;20066;-61
2021/12/11 21:44:45;;;;;;;11.27;8.07;;;;;;;5.45;77.52;100860.22;10217203;28;20063;-62
2021/12/11 21:49:51;;;;;;;11.18;8.10;;;;;;;5.34;76.79;100853.75;10216214;28;20494;-61
2021/12/11 21:54:56;;;;;;;10.65;7.38;;;;;;;5.41;76.95;100868.38;10216717;28;20057;-61
2021/12/11 22:00:02;;;;;;;12.07;7.80;;;;;;;5.40;77.49;100877.22;10214805;28;20047;-61
2021/12/11 22:05:09;;;;;;;12.30;7.60;;;;;;;5.39;76.56;100891.34;10216559;28;20073;-61
2021/12/11 22:10:17;;;;;;;10.27;6.75;;;;;;;5.40;76.56;100890.41;10215377;28;20079;-59
2021/12/11 22:15:24;;;;;;;11.00;7.15;;;;;;;5.28;76.17;100890.09;10246626;28;20047;-64
2021/12/11 22:20:30;;;;;;;8.48;6.65;;;;;;;5.46;75.43;100892.75;10217399;28;20058;-61
2021/12/11 22:26:05;;;;;;;;;;;;;;;5.49;75.23;100913.72;10213605;28;20085;-61
2021/12/11 22:31:17;;;;;;;11.30;6.50;;;;;;;5.31;74.99;100900.50;10212307;28;19930;-60
2021/12/11 22:36:20;;;;;;;8.98;6.20;;;;;;;5.13;74.84;100902.25;10210885;28;20134;-62
2021/12/11 22:41:26;;;;;;;9.25;5.47;;;;;;;5.22;74.74;100932.59;10209316;28;20067;-61
2021/12/11 22:46:29;;;;;;;8.93;5.32;;;;;;;5.10;75.22;100918.22;10237449;28;20722;-61
2021/12/11 22:51:37;;;;;;;9.90;5.70;;;;;;;4.95;75.23;100918.94;10199941;28;20131;-61
2021/12/11 22:56:44;;;;;;;11.48;5.55;;;;;;;4.80;75.37;100925.75;10207476;28;20149;-61
2021/12/11 23:01:56;;;;;;;13.27;5.45;;;;;;;4.66;76.04;100936.94;10204700;28;20051;-61
2021/12/11 23:07:03;;;;;;;8.73;5.20;;;;;;;4.66;76.09;100942.22;10194598;28;20050;-61
2021/12/11 23:12:10;;;;;;;8.13;5.25;;;;;;;4.45;76.56;100924.72;10212918;28;20722;-61
2021/12/11 23:17:20;;;;;;;7.63;5.50;;;;;;;4.62;76.02;100945.06;10206505;28;20083;-60
2021/12/11 23:22:30;;;;;;;9.15;5.45;;;;;;;4.59;75.77;100953.97;10224174;28;20043;-62
2021/12/11 23:27:38;;;;;;;6.07;5.10;;;;;;;4.56;75.61;100957.59;10194377;28;20309;-62
2021/12/11 23:32:42;;;;;;;13.52;6.47;;;;;;;4.43;76.19;100953.78;10203952;28;20039;-62
2021/12/11 23:37:54;;;;;;;7.75;5.30;;;;;;;4.29;76.37;100964.91;10232105;28;20475;-61
2021/12/11 23:43:10;;;;;;;8.23;5.47;;;;;;;4.06;76.53;100929.00;10216151;28;20044;-62
2021/12/11 23:48:19;;;;;;;7.75;4.53;;;;;;;4.25;76.10;100972.09;10223886;28;20043;-61